sensor_id;sensor_type;location;lat;lon;timestamp;P1;durP1;ratioP1;P2;durP2;ratioP2
8580;SDS011;4328;48.622;9.230;2023-09-19T00:02:00;0.90;;;0.90;;
8580;SDS011;4328;48.622;9.230;2023-09-19T00:04:31;1.17;;;0.90;;
8580;SDS011;4328;48.622;9.230;2023-09-19T00:06:58;1.07;;;1.00;;
8580;SDS011;4328;48.622;9.230;2023-09-19T00:09:24;0.90;;;0.90;;
8580;SDS011;4328;48.622;9.230;2023-09-19T00:11:52;2.20;;;1.00;;
8580;SDS011;4328;48.622;9.230;2023-09-19T00:14:19;1.87;;;0.97;;
8580;SDS011;4328;48.622;9.230;2023-09-19T00:16:49;1.23;;;1.03;;
8580;SDS011;4328;48.622;9.230;2023-09-19T00:19:16;1.03;;;0.90;;
8580;SDS011;4328;48.622;9.230;2023-09-19T00:21:43;0.90;;;0.90;;
8580;SDS011;4328;48.622;9.230;2023-09-19T00:24:10;0.80;;;0.80;;
8580;SDS011;4328;48.622;9.230;2023-09-19T00:26:37;1.63;;;1.03;;
8580;SDS011;4328;48.622;9.230;2023-09-19T00:29:03;1.13;;;1.03;;
8580;SDS011;4328;48.622;9.230;2023-09-19T00:31:29;1.47;;;1.00;;
8580;SDS011;4328;48.622;9.230;2023-09-19T00:33:56;1.13;;;0.90;;
8580;SDS011;4328;48.622;9.230;2023-09-19T00:36:25;1.10;;;0.93;;
8580;SDS011;4328;48.622;9.230;2023-09-19T00:38:52;1.33;;;0.90;;
8580;SDS011;4328;48.622;9.230;2023-09-19T00:41:19;1.23;;;1.00;;
8580;SDS011;4328;48.622;9.230;2023-09-19T00:43:45;1.17;;;1.03;;
8580;SDS011;4328;48.622;9.230;2023-09-19T00:46:12;1.10;;;0.97;;
8580;SDS011;4328;48.622;9.230;2023-09-19T00:48:42;2.83;;;1.00;;
8580;SDS011;4328;48.622;9.230;2023-09-19T00:51:09;1.07;;;0.97;;
8580;SDS011;4328;48.622;9.230;2023-09-19T00:53:36;1.10;;;0.90;;
8580;SDS011;4328;48.622;9.230;2023-09-19T00:56:06;0.87;;;0.87;;
8580;SDS011;4328;48.622;9.230;2023-09-19T00:58:33;1.13;;;1.00;;
8580;SDS011;4328;48.622;9.230;2023-09-19T01:01:00;1.03;;;1.00;;
8580;SDS011;4328;48.622;9.230;2023-09-19T01:03:31;0.97;;;0.80;;
8580;SDS011;4328;48.622;9.230;2023-09-19T01:05:59;0.80;;;0.80;;
8580;SDS011;4328;48.622;9.230;2023-09-19T01:08:25;4.73;;;0.90;;
8580;SDS011;4328;48.622;9.230;2023-09-19T01:10:55;0.83;;;0.83;;
8580;SDS011;4328;48.622;9.230;2023-09-19T01:13:27;1.33;;;0.90;;
8580;SDS011;4328;48.622;9.230;2023-09-19T01:15:59;0.87;;;0.87;;
8580;SDS011;4328;48.622;9.230;2023-09-19T01:18:36;1.73;;;0.80;;
8580;SDS011;4328;48.622;9.230;2023-09-19T01:21:08;1.23;;;0.70;;
8580;SDS011;4328;48.622;9.230;2023-09-19T01:23:39;0.70;;;0.70;;
8580;SDS011;4328;48.622;9.230;2023-09-19T01:26:23;0.93;;;0.83;;
8580;SDS011;4328;48.622;9.230;2023-09-19T01:29:00;0.80;;;0.80;;
8580;SDS011;4328;48.622;9.230;2023-09-19T01:31:31;0.80;;;0.80;;
8580;SDS011;4328;48.622;9.230;2023-09-19T01:33:59;2.27;;;1.00;;
8580;SDS011;4328;48.622;9.230;2023-09-19T01:36:27;1.47;;;0.80;;
8580;SDS011;4328;48.622;9.230;2023-09-19T01:38:54;1.50;;;0.80;;
8580;SDS011;4328;48.622;9.230;2023-09-19T01:41:22;3.67;;;1.03;;
8580;SDS011;4328;48.622;9.230;2023-09-19T01:43:50;2.27;;;0.90;;
8580;SDS011;4328;48.622;9.230;2023-09-19T01:46:19;0.80;;;0.80;;
8580;SDS011;4328;48.622;9.230;2023-09-19T01:48:53;0.83;;;0.83;;
8580;SDS011;4328;48.622;9.230;2023-09-19T01:51:21;0.80;;;0.80;;
8580;SDS011;4328;48.622;9.230;2023-09-19T01:53:53;1.83;;;0.93;;
8580;SDS011;4328;48.622;9.230;2023-09-19T01:56:23;0.70;;;0.70;;
8580;SDS011;4328;48.622;9.230;2023-09-19T01:58:56;0.73;;;0.73;;
8580;SDS011;4328;48.622;9.230;2023-09-19T02:01:22;1.23;;;0.77;;
8580;SDS011;4328;48.622;9.230;2023-09-19T02:03:51;1.47;;;0.77;;
8580;SDS011;4328;48.622;9.230;2023-09-19T02:06:18;0.90;;;0.90;;
8580;SDS011;4328;48.622;9.230;2023-09-19T02:08:46;2.37;;;0.80;;
8580;SDS011;4328;48.622;9.230;2023-09-19T02:11:13;0.87;;;0.87;;
8580;SDS011;4328;48.622;9.230;2023-09-19T02:13:39;1.23;;;0.70;;
8580;SDS011;4328;48.622;9.230;2023-09-19T02:16:06;1.57;;;1.00;;
8580;SDS011;4328;48.622;9.230;2023-09-19T02:18:34;1.57;;;0.90;;
8580;SDS011;4328;48.622;9.230;2023-09-19T02:21:02;1.63;;;0.83;;
8580;SDS011;4328;48.622;9.230;2023-09-19T02:23:29;0.73;;;0.70;;
8580;SDS011;4328;48.622;9.230;2023-09-19T02:25:55;0.60;;;0.60;;
8580;SDS011;4328;48.622;9.230;2023-09-19T02:28:23;2.07;;;0.90;;
8580;SDS011;4328;48.622;9.230;2023-09-19T02:30:49;0.83;;;0.83;;
8580;SDS011;4328;48.622;9.230;2023-09-19T02:33:16;1.77;;;0.60;;
8580;SDS011;4328;48.622;9.230;2023-09-19T02:35:43;1.17;;;0.90;;
8580;SDS011;4328;48.622;9.230;2023-09-19T02:38:11;1.13;;;0.90;;
8580;SDS011;4328;48.622;9.230;2023-09-19T02:40:37;1.87;;;0.97;;
8580;SDS011;4328;48.622;9.230;2023-09-19T02:43:04;1.33;;;1.20;;
8580;SDS011;4328;48.622;9.230;2023-09-19T02:45:32;1.43;;;1.00;;
8580;SDS011;4328;48.622;9.230;2023-09-19T02:47:58;0.90;;;0.90;;
8580;SDS011;4328;48.622;9.230;2023-09-19T02:50:25;1.00;;;1.00;;
8580;SDS011;4328;48.622;9.230;2023-09-19T02:52:51;0.90;;;0.90;;
8580;SDS011;4328;48.622;9.230;2023-09-19T02:55:19;4.03;;;1.07;;
8580;SDS011;4328;48.622;9.230;2023-09-19T02:57:47;1.20;;;1.10;;
8580;SDS011;4328;48.622;9.230;2023-09-19T03:00:14;1.60;;;1.10;;
8580;SDS011;4328;48.622;9.230;2023-09-19T03:02:40;1.57;;;1.10;;
8580;SDS011;4328;48.622;9.230;2023-09-19T03:05:08;0.90;;;0.90;;
8580;SDS011;4328;48.622;9.230;2023-09-19T03:07:36;1.33;;;1.00;;
8580;SDS011;4328;48.622;9.230;2023-09-19T03:10:03;1.00;;;1.00;;
8580;SDS011;4328;48.622;9.230;2023-09-19T03:12:31;1.57;;;1.00;;
8580;SDS011;4328;48.622;9.230;2023-09-19T03:14:58;2.90;;;1.10;;
8580;SDS011;4328;48.622;9.230;2023-09-19T03:17:25;1.20;;;1.10;;
8580;SDS011;4328;48.622;9.230;2023-09-19T03:19:52;1.27;;;1.00;;
8580;SDS011;4328;48.622;9.230;2023-09-19T03:22:18;2.10;;;1.10;;
8580;SDS011;4328;48.622;9.230;2023-09-19T03:24:45;1.93;;;0.90;;
8580;SDS011;4328;48.622;9.230;2023-09-19T03:27:12;2.73;;;1.07;;
8580;SDS011;4328;48.622;9.230;2023-09-19T03:29:40;1.20;;;1.10;;
8580;SDS011;4328;48.622;9.230;2023-09-19T03:32:07;1.77;;;1.03;;
8580;SDS011;4328;48.622;9.230;2023-09-19T03:34:35;2.57;;;1.13;;
8580;SDS011;4328;48.622;9.230;2023-09-19T03:37:02;2.30;;;1.10;;
8580;SDS011;4328;48.622;9.230;2023-09-19T03:39:29;1.53;;;1.00;;
8580;SDS011;4328;48.622;9.230;2023-09-19T03:41:55;1.03;;;1.00;;
8580;SDS011;4328;48.622;9.230;2023-09-19T03:44:21;1.30;;;1.10;;
8580;SDS011;4328;48.622;9.230;2023-09-19T03:46:49;2.40;;;0.80;;
8580;SDS011;4328;48.622;9.230;2023-09-19T03:49:15;1.10;;;0.90;;
8580;SDS011;4328;48.622;9.230;2023-09-19T03:51:42;1.80;;;1.10;;
8580;SDS011;4328;48.622;9.230;2023-09-19T03:54:08;1.23;;;1.07;;
8580;SDS011;4328;48.622;9.230;2023-09-19T03:56:35;1.37;;;1.23;;
8580;SDS011;4328;48.622;9.230;2023-09-19T03:59:01;2.83;;;1.10;;
8580;SDS011;4328;48.622;9.230;2023-09-19T04:01:27;1.70;;;1.00;;
8580;SDS011;4328;48.622;9.230;2023-09-19T04:03:58;1.30;;;1.20;;
8580;SDS011;4328;48.622;9.230;2023-09-19T04:06:32;1.63;;;1.00;;
8580;SDS011;4328;48.622;9.230;2023-09-19T04:09:00;1.97;;;1.00;;
8580;SDS011;4328;48.622;9.230;2023-09-19T04:11:26;2.40;;;0.90;;
8580;SDS011;4328;48.622;9.230;2023-09-19T04:13:52;1.10;;;0.80;;
8580;SDS011;4328;48.622;9.230;2023-09-19T04:16:19;1.30;;;0.97;;
8580;SDS011;4328;48.622;9.230;2023-09-19T04:18:45;1.67;;;0.90;;
8580;SDS011;4328;48.622;9.230;2023-09-19T04:21:14;1.10;;;1.00;;
8580;SDS011;4328;48.622;9.230;2023-09-19T04:23:41;2.00;;;0.90;;
8580;SDS011;4328;48.622;9.230;2023-09-19T04:26:07;1.10;;;1.00;;
8580;SDS011;4328;48.622;9.230;2023-09-19T04:28:34;1.10;;;1.10;;
8580;SDS011;4328;48.622;9.230;2023-09-19T04:31:03;3.33;;;1.17;;
8580;SDS011;4328;48.622;9.230;2023-09-19T04:33:30;1.20;;;1.10;;
8580;SDS011;4328;48.622;9.230;2023-09-19T04:35:58;1.47;;;1.10;;
8580;SDS011;4328;48.622;9.230;2023-09-19T04:38:26;2.20;;;1.20;;
8580;SDS011;4328;48.622;9.230;2023-09-19T04:40:56;4.10;;;1.40;;
8580;SDS011;4328;48.622;9.230;2023-09-19T04:43:23;1.50;;;1.10;;
8580;SDS011;4328;48.622;9.230;2023-09-19T04:45:49;1.50;;;1.40;;
8580;SDS011;4328;48.622;9.230;2023-09-19T04:48:16;1.60;;;1.50;;
8580;SDS011;4328;48.622;9.230;2023-09-19T04:50:43;1.50;;;1.40;;
8580;SDS011;4328;48.622;9.230;2023-09-19T04:53:09;1.40;;;1.30;;
8580;SDS011;4328;48.622;9.230;2023-09-19T04:55:37;1.87;;;1.33;;
8580;SDS011;4328;48.622;9.230;2023-09-19T04:58:03;1.53;;;1.43;;
8580;SDS011;4328;48.622;9.230;2023-09-19T05:00:30;1.33;;;1.27;;
8580;SDS011;4328;48.622;9.230;2023-09-19T05:03:00;1.93;;;1.50;;
8580;SDS011;4328;48.622;9.230;2023-09-19T05:05:28;3.40;;;1.47;;
8580;SDS011;4328;48.622;9.230;2023-09-19T05:07:55;1.93;;;1.53;;
8580;SDS011;4328;48.622;9.230;2023-09-19T05:10:21;1.77;;;1.40;;
8580;SDS011;4328;48.622;9.230;2023-09-19T05:12:48;2.70;;;1.40;;
8580;SDS011;4328;48.622;9.230;2023-09-19T05:15:16;1.60;;;1.23;;
8580;SDS011;4328;48.622;9.230;2023-09-19T05:17:47;1.40;;;1.30;;
8580;SDS011;4328;48.622;9.230;2023-09-19T05:20:14;4.37;;;1.30;;
8580;SDS011;4328;48.622;9.230;2023-09-19T05:22:49;1.40;;;1.30;;
8580;SDS011;4328;48.622;9.230;2023-09-19T05:25:16;1.97;;;1.27;;
8580;SDS011;4328;48.622;9.230;2023-09-19T05:27:43;1.70;;;1.60;;
8580;SDS011;4328;48.622;9.230;2023-09-19T05:30:12;1.60;;;1.50;;
8580;SDS011;4328;48.622;9.230;2023-09-19T05:32:40;3.53;;;1.70;;
8580;SDS011;4328;48.622;9.230;2023-09-19T05:35:08;1.67;;;1.40;;
8580;SDS011;4328;48.622;9.230;2023-09-19T05:37:34;1.70;;;1.43;;
8580;SDS011;4328;48.622;9.230;2023-09-19T05:40:01;1.40;;;1.30;;
8580;SDS011;4328;48.622;9.230;2023-09-19T05:42:32;2.73;;;1.33;;
8580;SDS011;4328;48.622;9.230;2023-09-19T05:44:58;3.67;;;1.17;;
8580;SDS011;4328;48.622;9.230;2023-09-19T05:47:26;2.43;;;1.30;;
8580;SDS011;4328;48.622;9.230;2023-09-19T05:49:53;3.60;;;1.43;;
8580;SDS011;4328;48.622;9.230;2023-09-19T05:52:19;3.30;;;1.60;;
8580;SDS011;4328;48.622;9.230;2023-09-19T05:54:47;3.17;;;1.23;;
8580;SDS011;4328;48.622;9.230;2023-09-19T05:57:14;1.40;;;1.30;;
8580;SDS011;4328;48.622;9.230;2023-09-19T05:59:41;2.37;;;1.40;;
8580;SDS011;4328;48.622;9.230;2023-09-19T06:02:08;1.40;;;1.30;;
8580;SDS011;4328;48.622;9.230;2023-09-19T06:04:36;1.40;;;1.30;;
8580;SDS011;4328;48.622;9.230;2023-09-19T06:07:05;2.83;;;1.33;;
8580;SDS011;4328;48.622;9.230;2023-09-19T06:09:32;4.30;;;1.67;;
8580;SDS011;4328;48.622;9.230;2023-09-19T06:11:58;1.80;;;1.30;;
8580;SDS011;4328;48.622;9.230;2023-09-19T06:14:28;3.43;;;1.40;;
8580;SDS011;4328;48.622;9.230;2023-09-19T06:16:54;3.73;;;1.53;;
8580;SDS011;4328;48.622;9.230;2023-09-19T06:19:21;2.30;;;1.47;;
8580;SDS011;4328;48.622;9.230;2023-09-19T06:21:52;1.93;;;1.40;;
8580;SDS011;4328;48.622;9.230;2023-09-19T06:24:19;3.27;;;1.20;;
8580;SDS011;4328;48.622;9.230;2023-09-19T06:26:46;3.27;;;1.10;;
8580;SDS011;4328;48.622;9.230;2023-09-19T06:29:12;1.67;;;1.20;;
8580;SDS011;4328;48.622;9.230;2023-09-19T06:31:39;1.90;;;1.37;;
8580;SDS011;4328;48.622;9.230;2023-09-19T06:34:06;4.77;;;1.60;;
8580;SDS011;4328;48.622;9.230;2023-09-19T06:36:33;2.87;;;1.70;;
8580;SDS011;4328;48.622;9.230;2023-09-19T06:39:00;2.27;;;1.40;;
8580;SDS011;4328;48.622;9.230;2023-09-19T06:41:29;2.23;;;1.10;;
8580;SDS011;4328;48.622;9.230;2023-09-19T06:43:55;3.80;;;1.30;;
8580;SDS011;4328;48.622;9.230;2023-09-19T06:46:22;1.80;;;1.00;;
8580;SDS011;4328;48.622;9.230;2023-09-19T06:48:49;1.63;;;1.20;;
8580;SDS011;4328;48.622;9.230;2023-09-19T06:51:17;1.93;;;1.00;;
8580;SDS011;4328;48.622;9.230;2023-09-19T06:53:44;1.47;;;0.80;;
8580;SDS011;4328;48.622;9.230;2023-09-19T06:56:12;2.03;;;1.00;;
8580;SDS011;4328;48.622;9.230;2023-09-19T06:58:38;3.10;;;0.97;;
8580;SDS011;4328;48.622;9.230;2023-09-19T07:01:04;0.97;;;0.80;;
8580;SDS011;4328;48.622;9.230;2023-09-19T07:03:31;1.27;;;0.90;;
8580;SDS011;4328;48.622;9.230;2023-09-19T07:05:58;1.67;;;0.93;;
8580;SDS011;4328;48.622;9.230;2023-09-19T07:08:24;1.40;;;1.00;;
8580;SDS011;4328;48.622;9.230;2023-09-19T07:10:51;1.43;;;0.90;;
8580;SDS011;4328;48.622;9.230;2023-09-19T07:13:19;0.80;;;0.80;;
8580;SDS011;4328;48.622;9.230;2023-09-19T07:15:45;2.00;;;0.80;;
8580;SDS011;4328;48.622;9.230;2023-09-19T07:18:15;0.90;;;0.80;;
8580;SDS011;4328;48.622;9.230;2023-09-19T07:20:42;1.17;;;0.73;;
8580;SDS011;4328;48.622;9.230;2023-09-19T07:23:13;0.80;;;0.77;;
8580;SDS011;4328;48.622;9.230;2023-09-19T07:25:40;0.80;;;0.80;;
8580;SDS011;4328;48.622;9.230;2023-09-19T07:28:06;0.80;;;0.77;;
8580;SDS011;4328;48.622;9.230;2023-09-19T07:30:36;1.20;;;1.10;;
8580;SDS011;4328;48.622;9.230;2023-09-19T07:33:04;2.60;;;0.90;;
8580;SDS011;4328;48.622;9.230;2023-09-19T07:35:31;1.20;;;1.07;;
8580;SDS011;4328;48.622;9.230;2023-09-19T07:37:57;1.07;;;0.83;;
8580;SDS011;4328;48.622;9.230;2023-09-19T07:40:26;3.53;;;1.10;;
8580;SDS011;4328;48.622;9.230;2023-09-19T07:42:53;1.30;;;1.00;;
8580;SDS011;4328;48.622;9.230;2023-09-19T07:45:20;1.30;;;1.00;;
8580;SDS011;4328;48.622;9.230;2023-09-19T07:47:48;2.17;;;1.00;;
8580;SDS011;4328;48.622;9.230;2023-09-19T07:50:14;3.00;;;0.97;;
8580;SDS011;4328;48.622;9.230;2023-09-19T07:52:43;1.57;;;1.03;;
8580;SDS011;4328;48.622;9.230;2023-09-19T07:55:10;1.33;;;0.90;;
8580;SDS011;4328;48.622;9.230;2023-09-19T07:57:41;0.80;;;0.80;;
8580;SDS011;4328;48.622;9.230;2023-09-19T08:00:08;0.50;;;0.50;;
8580;SDS011;4328;48.622;9.230;2023-09-19T08:02:35;1.20;;;0.70;;
8580;SDS011;4328;48.622;9.230;2023-09-19T08:05:06;1.37;;;0.80;;
8580;SDS011;4328;48.622;9.230;2023-09-19T08:07:35;0.77;;;0.77;;
8580;SDS011;4328;48.622;9.230;2023-09-19T08:10:02;2.30;;;0.70;;
8580;SDS011;4328;48.622;9.230;2023-09-19T08:12:28;1.00;;;0.90;;
8580;SDS011;4328;48.622;9.230;2023-09-19T08:14:55;0.77;;;0.77;;
8580;SDS011;4328;48.622;9.230;2023-09-19T08:17:21;0.73;;;0.70;;
8580;SDS011;4328;48.622;9.230;2023-09-19T08:19:48;1.07;;;0.70;;
8580;SDS011;4328;48.622;9.230;2023-09-19T08:22:19;1.33;;;0.87;;
8580;SDS011;4328;48.622;9.230;2023-09-19T08:24:46;0.80;;;0.60;;
8580;SDS011;4328;48.622;9.230;2023-09-19T08:27:13;1.33;;;0.90;;
8580;SDS011;4328;48.622;9.230;2023-09-19T08:29:41;0.63;;;0.63;;
8580;SDS011;4328;48.622;9.230;2023-09-19T08:32:08;1.20;;;0.80;;
8580;SDS011;4328;48.622;9.230;2023-09-19T08:34:34;1.23;;;0.80;;
8580;SDS011;4328;48.622;9.230;2023-09-19T08:37:03;0.80;;;0.80;;
8580;SDS011;4328;48.622;9.230;2023-09-19T08:39:31;1.43;;;0.70;;
8580;SDS011;4328;48.622;9.230;2023-09-19T08:41:58;3.13;;;0.80;;
8580;SDS011;4328;48.622;9.230;2023-09-19T08:44:25;2.27;;;0.80;;
8580;SDS011;4328;48.622;9.230;2023-09-19T08:46:53;1.97;;;0.73;;
8580;SDS011;4328;48.622;9.230;2023-09-19T08:49:24;1.30;;;0.90;;
8580;SDS011;4328;48.622;9.230;2023-09-19T08:51:58;1.03;;;0.70;;
8580;SDS011;4328;48.622;9.230;2023-09-19T08:54:26;0.80;;;0.80;;
8580;SDS011;4328;48.622;9.230;2023-09-19T08:56:56;1.50;;;1.10;;
8580;SDS011;4328;48.622;9.230;2023-09-19T08:59:25;2.70;;;0.80;;
8580;SDS011;4328;48.622;9.230;2023-09-19T09:01:52;2.20;;;1.00;;
8580;SDS011;4328;48.622;9.230;2023-09-19T09:04:19;2.07;;;1.00;;
8580;SDS011;4328;48.622;9.230;2023-09-19T09:06:46;2.22;;;0.88;;
8580;SDS011;4328;48.622;9.230;2023-09-19T09:09:13;1.88;;;0.93;;
8580;SDS011;4328;48.622;9.230;2023-09-19T09:11:40;0.60;;;0.60;;
8580;SDS011;4328;48.622;9.230;2023-09-19T09:14:08;1.20;;;1.00;;
8580;SDS011;4328;48.622;9.230;2023-09-19T09:16:34;1.88;;;0.85;;
8580;SDS011;4328;48.622;9.230;2023-09-19T09:19:01;1.27;;;0.93;;
8580;SDS011;4328;48.622;9.230;2023-09-19T09:21:27;2.67;;;0.80;;
8580;SDS011;4328;48.622;9.230;2023-09-19T09:23:54;0.77;;;0.75;;
8580;SDS011;4328;48.622;9.230;2023-09-19T09:26:33;1.73;;;0.88;;
8580;SDS011;4328;48.622;9.230;2023-09-19T09:29:07;1.70;;;0.90;;
8580;SDS011;4328;48.622;9.230;2023-09-19T09:31:34;1.35;;;1.00;;
8580;SDS011;4328;48.622;9.230;2023-09-19T09:34:00;3.38;;;1.00;;
8580;SDS011;4328;48.622;9.230;2023-09-19T09:36:36;0.90;;;0.90;;
8580;SDS011;4328;48.622;9.230;2023-09-19T09:39:02;1.20;;;0.90;;
8580;SDS011;4328;48.622;9.230;2023-09-19T09:41:41;1.95;;;0.90;;
8580;SDS011;4328;48.622;9.230;2023-09-19T09:44:13;1.23;;;0.85;;
8580;SDS011;4328;48.622;9.230;2023-09-19T09:46:42;1.77;;;0.85;;
8580;SDS011;4328;48.622;9.230;2023-09-19T09:49:22;1.05;;;0.95;;
8580;SDS011;4328;48.622;9.230;2023-09-19T09:51:59;1.25;;;0.95;;
8580;SDS011;4328;48.622;9.230;2023-09-19T09:54:26;1.60;;;0.90;;
8580;SDS011;4328;48.622;9.230;2023-09-19T09:56:59;2.08;;;0.90;;
8580;SDS011;4328;48.622;9.230;2023-09-19T09:59:46;1.13;;;0.77;;
8580;SDS011;4328;48.622;9.230;2023-09-19T10:02:13;1.10;;;1.00;;
8580;SDS011;4328;48.622;9.230;2023-09-19T10:04:42;1.55;;;1.10;;
8580;SDS011;4328;48.622;9.230;2023-09-19T10:07:24;1.10;;;1.10;;
8580;SDS011;4328;48.622;9.230;2023-09-19T10:09:51;0.95;;;0.95;;
8580;SDS011;4328;48.622;9.230;2023-09-19T10:12:17;1.17;;;1.10;;
8580;SDS011;4328;48.622;9.230;2023-09-19T10:14:46;1.25;;;1.15;;
8580;SDS011;4328;48.622;9.230;2023-09-19T10:17:15;1.30;;;1.00;;
8580;SDS011;4328;48.622;9.230;2023-09-19T10:19:46;1.38;;;1.05;;
8580;SDS011;4328;48.622;9.230;2023-09-19T10:22:18;1.33;;;0.80;;
8580;SDS011;4328;48.622;9.230;2023-09-19T10:24:47;0.90;;;0.90;;
8580;SDS011;4328;48.622;9.230;2023-09-19T10:27:14;1.73;;;1.10;;
8580;SDS011;4328;48.622;9.230;2023-09-19T10:29:41;1.70;;;1.00;;
8580;SDS011;4328;48.622;9.230;2023-09-19T10:32:13;4.07;;;1.30;;
8580;SDS011;4328;48.622;9.230;2023-09-19T10:34:43;1.83;;;1.20;;
8580;SDS011;4328;48.622;9.230;2023-09-19T10:37:11;1.10;;;1.10;;
8580;SDS011;4328;48.622;9.230;2023-09-19T10:39:40;1.40;;;1.25;;
8580;SDS011;4328;48.622;9.230;2023-09-19T10:42:07;1.27;;;1.20;;
8580;SDS011;4328;48.622;9.230;2023-09-19T10:44:34;1.10;;;1.00;;
8580;SDS011;4328;48.622;9.230;2023-09-19T10:47:05;1.40;;;1.30;;
8580;SDS011;4328;48.622;9.230;2023-09-19T10:49:33;0.90;;;0.90;;
8580;SDS011;4328;48.622;9.230;2023-09-19T10:52:00;1.88;;;1.10;;
8580;SDS011;4328;48.622;9.230;2023-09-19T10:54:27;1.60;;;0.90;;
8580;SDS011;4328;48.622;9.230;2023-09-19T10:56:55;1.15;;;1.00;;
8580;SDS011;4328;48.622;9.230;2023-09-19T10:59:24;1.40;;;1.30;;
8580;SDS011;4328;48.622;9.230;2023-09-19T11:01:51;1.40;;;1.30;;
8580;SDS011;4328;48.622;9.230;2023-09-19T11:04:20;1.15;;;1.00;;
8580;SDS011;4328;48.622;9.230;2023-09-19T11:06:58;0.93;;;0.93;;
8580;SDS011;4328;48.622;9.230;2023-09-19T11:09:25;1.30;;;1.20;;
8580;SDS011;4328;48.622;9.230;2023-09-19T11:12:08;0.88;;;0.80;;
8580;SDS011;4328;48.622;9.230;2023-09-19T11:14:38;1.08;;;1.02;;
8580;SDS011;4328;48.622;9.230;2023-09-19T11:25:51;1.33;;;0.95;;
8580;SDS011;4328;48.622;9.230;2023-09-19T11:28:34;1.10;;;1.00;;
8580;SDS011;4328;48.622;9.230;2023-09-19T11:33:46;0.95;;;0.85;;
8580;SDS011;4328;48.622;9.230;2023-09-19T11:36:15;2.00;;;0.95;;
8580;SDS011;4328;48.622;9.230;2023-09-19T11:39:00;1.10;;;0.80;;
8580;SDS011;4328;48.622;9.230;2023-09-19T11:41:38;1.73;;;0.90;;
8580;SDS011;4328;48.622;9.230;2023-09-19T11:46:52;0.85;;;0.80;;
8580;SDS011;4328;48.622;9.230;2023-09-19T11:49:23;1.75;;;0.90;;
8580;SDS011;4328;48.622;9.230;2023-09-19T11:51:55;3.90;;;1.02;;
8580;SDS011;4328;48.622;9.230;2023-09-19T11:54:22;1.42;;;1.00;;
8580;SDS011;4328;48.622;9.230;2023-09-19T11:56:51;1.63;;;0.90;;
8580;SDS011;4328;48.622;9.230;2023-09-19T11:59:19;1.38;;;0.70;;
8580;SDS011;4328;48.622;9.230;2023-09-19T12:01:50;1.83;;;1.00;;
8580;SDS011;4328;48.622;9.230;2023-09-19T12:04:19;0.80;;;0.80;;
8580;SDS011;4328;48.622;9.230;2023-09-19T12:06:55;1.00;;;0.90;;
8580;SDS011;4328;48.622;9.230;2023-09-19T12:09:23;1.42;;;0.85;;
8580;SDS011;4328;48.622;9.230;2023-09-19T12:11:51;1.35;;;0.73;;
8580;SDS011;4328;48.622;9.230;2023-09-19T12:14:21;1.35;;;0.80;;
8580;SDS011;4328;48.622;9.230;2023-09-19T12:16:50;1.67;;;1.00;;
8580;SDS011;4328;48.622;9.230;2023-09-19T12:19:20;1.70;;;1.10;;
8580;SDS011;4328;48.622;9.230;2023-09-19T12:21:53;1.10;;;1.00;;
8580;SDS011;4328;48.622;9.230;2023-09-19T12:24:21;1.30;;;0.80;;
8580;SDS011;4328;48.622;9.230;2023-09-19T12:26:52;1.88;;;0.93;;
8580;SDS011;4328;48.622;9.230;2023-09-19T12:29:22;0.90;;;0.70;;
8580;SDS011;4328;48.622;9.230;2023-09-19T12:31:50;1.60;;;1.17;;
8580;SDS011;4328;48.622;9.230;2023-09-19T12:34:20;2.30;;;0.82;;
8580;SDS011;4328;48.622;9.230;2023-09-19T12:36:47;2.45;;;0.90;;
8580;SDS011;4328;48.622;9.230;2023-09-19T12:39:22;1.10;;;0.80;;
8580;SDS011;4328;48.622;9.230;2023-09-19T12:41:49;0.90;;;0.90;;
8580;SDS011;4328;48.622;9.230;2023-09-19T12:44:17;0.85;;;0.85;;
8580;SDS011;4328;48.622;9.230;2023-09-19T12:46:44;0.80;;;0.80;;
8580;SDS011;4328;48.622;9.230;2023-09-19T12:49:16;1.10;;;1.00;;
8580;SDS011;4328;48.622;9.230;2023-09-19T12:51:43;0.70;;;0.70;;
8580;SDS011;4328;48.622;9.230;2023-09-19T12:54:10;0.90;;;0.90;;
8580;SDS011;4328;48.622;9.230;2023-09-19T12:56:39;1.02;;;0.82;;
8580;SDS011;4328;48.622;9.230;2023-09-19T12:59:05;1.23;;;1.00;;
8580;SDS011;4328;48.622;9.230;2023-09-19T13:01:36;1.77;;;1.05;;
8580;SDS011;4328;48.622;9.230;2023-09-19T13:04:15;2.15;;;0.90;;
8580;SDS011;4328;48.622;9.230;2023-09-19T13:06:43;1.13;;;0.93;;
8580;SDS011;4328;48.622;9.230;2023-09-19T13:09:10;0.95;;;0.82;;
8580;SDS011;4328;48.622;9.230;2023-09-19T13:11:37;0.80;;;0.80;;
8580;SDS011;4328;48.622;9.230;2023-09-19T13:14:18;2.45;;;0.90;;
8580;SDS011;4328;48.622;9.230;2023-09-19T13:16:56;1.27;;;0.73;;
8580;SDS011;4328;48.622;9.230;2023-09-19T13:19:35;0.85;;;0.82;;
8580;SDS011;4328;48.622;9.230;2023-09-19T13:22:03;1.45;;;0.98;;
8580;SDS011;4328;48.622;9.230;2023-09-19T13:24:29;1.23;;;0.80;;
8580;SDS011;4328;48.622;9.230;2023-09-19T13:26:55;1.73;;;0.80;;
8580;SDS011;4328;48.622;9.230;2023-09-19T13:29:22;1.10;;;1.00;;
8580;SDS011;4328;48.622;9.230;2023-09-19T13:31:49;1.63;;;0.95;;
8580;SDS011;4328;48.622;9.230;2023-09-19T13:34:17;0.77;;;0.75;;
8580;SDS011;4328;48.622;9.230;2023-09-19T13:36:44;1.00;;;1.00;;
8580;SDS011;4328;48.622;9.230;2023-09-19T13:39:13;1.15;;;0.90;;
8580;SDS011;4328;48.622;9.230;2023-09-19T13:41:40;1.40;;;0.93;;
8580;SDS011;4328;48.622;9.230;2023-09-19T13:44:07;1.10;;;0.85;;
8580;SDS011;4328;48.622;9.230;2023-09-19T13:46:35;0.80;;;0.80;;
8580;SDS011;4328;48.622;9.230;2023-09-19T13:49:02;4.43;;;1.10;;
8580;SDS011;4328;48.622;9.230;2023-09-19T13:51:30;1.65;;;0.80;;
8580;SDS011;4328;48.622;9.230;2023-09-19T13:53:56;0.77;;;0.77;;
8580;SDS011;4328;48.622;9.230;2023-09-19T13:56:24;1.33;;;0.90;;
8580;SDS011;4328;48.622;9.230;2023-09-19T13:58:52;1.25;;;1.05;;
8580;SDS011;4328;48.622;9.230;2023-09-19T14:01:19;0.95;;;0.90;;
8580;SDS011;4328;48.622;9.230;2023-09-19T14:03:45;1.25;;;0.90;;
8580;SDS011;4328;48.622;9.230;2023-09-19T14:06:15;1.00;;;0.90;;
8580;SDS011;4328;48.622;9.230;2023-09-19T14:08:43;0.90;;;0.85;;
8580;SDS011;4328;48.622;9.230;2023-09-19T14:11:10;0.85;;;0.85;;
8580;SDS011;4328;48.622;9.230;2023-09-19T14:13:37;0.95;;;0.93;;
8580;SDS011;4328;48.622;9.230;2023-09-19T14:16:04;0.85;;;0.85;;
8580;SDS011;4328;48.622;9.230;2023-09-19T14:18:31;1.92;;;0.90;;
8580;SDS011;4328;48.622;9.230;2023-09-19T14:20:57;2.85;;;1.00;;
8580;SDS011;4328;48.622;9.230;2023-09-19T14:23:23;0.90;;;0.88;;
8580;SDS011;4328;48.622;9.230;2023-09-19T14:25:52;1.10;;;1.00;;
8580;SDS011;4328;48.622;9.230;2023-09-19T14:28:19;1.20;;;0.90;;
8580;SDS011;4328;48.622;9.230;2023-09-19T14:30:45;1.85;;;1.08;;
8580;SDS011;4328;48.622;9.230;2023-09-19T14:33:14;1.98;;;0.90;;
8580;SDS011;4328;48.622;9.230;2023-09-19T14:35:41;1.38;;;0.98;;
8580;SDS011;4328;48.622;9.230;2023-09-19T14:38:07;1.10;;;0.88;;
8580;SDS011;4328;48.622;9.230;2023-09-19T14:40:33;0.90;;;0.80;;
8580;SDS011;4328;48.622;9.230;2023-09-19T14:43:02;1.75;;;0.80;;
8580;SDS011;4328;48.622;9.230;2023-09-19T14:45:29;1.45;;;0.90;;
8580;SDS011;4328;48.622;9.230;2023-09-19T14:47:56;1.85;;;0.80;;
8580;SDS011;4328;48.622;9.230;2023-09-19T14:50:22;0.80;;;0.80;;
8580;SDS011;4328;48.622;9.230;2023-09-19T14:52:49;0.90;;;0.90;;
8580;SDS011;4328;48.622;9.230;2023-09-19T14:55:16;1.20;;;1.10;;
8580;SDS011;4328;48.622;9.230;2023-09-19T14:57:48;0.88;;;0.88;;
8580;SDS011;4328;48.622;9.230;2023-09-19T15:00:17;1.10;;;1.00;;
8580;SDS011;4328;48.622;9.230;2023-09-19T15:02:46;1.00;;;1.00;;
8580;SDS011;4328;48.622;9.230;2023-09-19T15:05:15;1.27;;;0.70;;
8580;SDS011;4328;48.622;9.230;2023-09-19T15:07:41;0.88;;;0.88;;
8580;SDS011;4328;48.622;9.230;2023-09-19T15:10:08;0.80;;;0.80;;
8580;SDS011;4328;48.622;9.230;2023-09-19T15:12:34;2.40;;;0.93;;
8580;SDS011;4328;48.622;9.230;2023-09-19T15:15:02;1.95;;;1.10;;
8580;SDS011;4328;48.622;9.230;2023-09-19T15:17:33;1.00;;;0.93;;
8580;SDS011;4328;48.622;9.230;2023-09-19T15:19:59;1.73;;;0.90;;
8580;SDS011;4328;48.622;9.230;2023-09-19T15:22:27;0.90;;;0.90;;
8580;SDS011;4328;48.622;9.230;2023-09-19T15:24:53;1.03;;;0.93;;
8580;SDS011;4328;48.622;9.230;2023-09-19T15:27:20;1.53;;;0.93;;
8580;SDS011;4328;48.622;9.230;2023-09-19T15:29:46;0.77;;;0.77;;
8580;SDS011;4328;48.622;9.230;2023-09-19T15:32:13;1.70;;;1.00;;
8580;SDS011;4328;48.622;9.230;2023-09-19T15:34:40;0.90;;;0.90;;
8580;SDS011;4328;48.622;9.230;2023-09-19T15:37:07;2.43;;;0.90;;